sensor_id;sensor_type;location;lat;lon;timestamp;temperature;humidity
8099;DHT22;4092;47.876;9.372;2023-11-21T00:00:13;6.40;99.90
8099;DHT22;4092;47.876;9.372;2023-11-21T00:02:42;6.40;99.90
8099;DHT22;4092;47.876;9.372;2023-11-21T00:05:10;6.30;99.90
8099;DHT22;4092;47.876;9.372;2023-11-21T00:07:38;6.20;99.90
8099;DHT22;4092;47.876;9.372;2023-11-21T00:10:07;6.20;99.90
8099;DHT22;4092;47.876;9.372;2023-11-21T00:12:36;6.20;99.90
8099;DHT22;4092;47.876;9.372;2023-11-21T00:15:04;6.10;99.90
8099;DHT22;4092;47.876;9.372;2023-11-21T00:17:31;6.10;99.90
8099;DHT22;4092;47.876;9.372;2023-11-21T00:20:00;6.10;99.90
8099;DHT22;4092;47.876;9.372;2023-11-21T00:22:27;6.10;99.90
8099;DHT22;4092;47.876;9.372;2023-11-21T00:24:54;6.00;99.90
8099;DHT22;4092;47.876;9.372;2023-11-21T00:27:21;6.00;99.90
8099;DHT22;4092;47.876;9.372;2023-11-21T00:29:48;6.00;99.90
8099;DHT22;4092;47.876;9.372;2023-11-21T00:32:15;6.00;99.90
8099;DHT22;4092;47.876;9.372;2023-11-21T00:34:42;5.90;99.90
8099;DHT22;4092;47.876;9.372;2023-11-21T00:37:11;6.00;99.90
8099;DHT22;4092;47.876;9.372;2023-11-21T00:39:38;5.90;99.90
8099;DHT22;4092;47.876;9.372;2023-11-21T00:42:06;5.90;99.90
8099;DHT22;4092;47.876;9.372;2023-11-21T00:44:37;5.90;99.90
8099;DHT22;4092;47.876;9.372;2023-11-21T00:47:04;6.00;99.90
8099;DHT22;4092;47.876;9.372;2023-11-21T00:49:31;5.90;99.90
8099;DHT22;4092;47.876;9.372;2023-11-21T00:51:59;6.00;99.90
8099;DHT22;4092;47.876;9.372;2023-11-21T00:54:27;5.90;99.90
8099;DHT22;4092;47.876;9.372;2023-11-21T00:56:54;5.90;99.90
8099;DHT22;4092;47.876;9.372;2023-11-21T00:59:22;5.90;99.90
8099;DHT22;4092;47.876;9.372;2023-11-21T01:01:50;5.90;99.90
8099;DHT22;4092;47.876;9.372;2023-11-21T01:04:18;5.90;99.90
8099;DHT22;4092;47.876;9.372;2023-11-21T01:06:45;5.90;99.90
8099;DHT22;4092;47.876;9.372;2023-11-21T01:09:12;5.90;99.90
8099;DHT22;4092;47.876;9.372;2023-11-21T01:11:40;6.00;99.90
8099;DHT22;4092;47.876;9.372;2023-11-21T01:14:08;6.00;99.90
8099;DHT22;4092;47.876;9.372;2023-11-21T01:16:36;6.00;99.90
8099;DHT22;4092;47.876;9.372;2023-11-21T01:19:03;6.00;99.90
8099;DHT22;4092;47.876;9.372;2023-11-21T01:21:31;6.10;99.90
8099;DHT22;4092;47.876;9.372;2023-11-21T01:23:58;6.00;99.90
8099;DHT22;4092;47.876;9.372;2023-11-21T01:26:25;6.00;99.90
8099;DHT22;4092;47.876;9.372;2023-11-21T01:28:53;6.00;99.90
8099;DHT22;4092;47.876;9.372;2023-11-21T01:31:20;6.00;99.90
8099;DHT22;4092;47.876;9.372;2023-11-21T01:33:47;6.10;99.90
8099;DHT22;4092;47.876;9.372;2023-11-21T01:36:18;6.10;99.90
8099;DHT22;4092;47.876;9.372;2023-11-21T01:38:45;6.00;99.90
8099;DHT22;4092;47.876;9.372;2023-11-21T01:41:13;6.00;99.90
8099;DHT22;4092;47.876;9.372;2023-11-21T01:43:41;6.00;99.90
8099;DHT22;4092;47.876;9.372;2023-11-21T01:46:10;6.00;99.90
8099;DHT22;4092;47.876;9.372;2023-11-21T01:48:37;5.90;99.90
8099;DHT22;4092;47.876;9.372;2023-11-21T01:51:05;5.90;99.90
8099;DHT22;4092;47.876;9.372;2023-11-21T01:53:32;5.90;99.90
8099;DHT22;4092;47.876;9.372;2023-11-21T01:55:59;5.90;99.90
8099;DHT22;4092;47.876;9.372;2023-11-21T01:58:26;5.90;99.90
8099;DHT22;4092;47.876;9.372;2023-11-21T02:00:53;5.80;99.90
8099;DHT22;4092;47.876;9.372;2023-11-21T02:03:22;5.80;99.90
8099;DHT22;4092;47.876;9.372;2023-11-21T02:05:50;5.80;99.90
8099;DHT22;4092;47.876;9.372;2023-11-21T02:08:17;5.80;99.90
8099;DHT22;4092;47.876;9.372;2023-11-21T02:10:45;5.70;99.90
8099;DHT22;4092;47.876;9.372;2023-11-21T02:13:13;5.70;99.90
8099;DHT22;4092;47.876;9.372;2023-11-21T02:15:42;5.60;99.90
8099;DHT22;4092;47.876;9.372;2023-11-21T02:18:09;5.70;99.90
8099;DHT22;4092;47.876;9.372;2023-11-21T02:20:38;5.70;99.90
8099;DHT22;4092;47.876;9.372;2023-11-21T02:23:08;5.60;99.90
8099;DHT22;4092;47.876;9.372;2023-11-21T02:25:35;5.60;99.90
8099;DHT22;4092;47.876;9.372;2023-11-21T02:28:04;5.60;99.90
8099;DHT22;4092;47.876;9.372;2023-11-21T02:30:32;5.60;99.90
8099;DHT22;4092;47.876;9.372;2023-11-21T02:33:00;5.60;99.90
8099;DHT22;4092;47.876;9.372;2023-11-21T02:35:27;5.60;99.90
8099;DHT22;4092;47.876;9.372;2023-11-21T02:37:56;5.60;99.90
8099;DHT22;4092;47.876;9.372;2023-11-21T02:40:26;5.50;99.90
8099;DHT22;4092;47.876;9.372;2023-11-21T02:42:53;5.50;99.90
8099;DHT22;4092;47.876;9.372;2023-11-21T02:45:21;5.50;99.90
8099;DHT22;4092;47.876;9.372;2023-11-21T02:47:48;5.50;99.90
8099;DHT22;4092;47.876;9.372;2023-11-21T02:50:16;5.50;99.90
8099;DHT22;4092;47.876;9.372;2023-11-21T02:52:44;5.40;99.90
8099;DHT22;4092;47.876;9.372;2023-11-21T02:55:12;5.40;99.90
8099;DHT22;4092;47.876;9.372;2023-11-21T02:57:40;5.40;99.90
8099;DHT22;4092;47.876;9.372;2023-11-21T03:00:08;5.40;99.90
8099;DHT22;4092;47.876;9.372;2023-11-21T03:02:38;5.40;99.90
8099;DHT22;4092;47.876;9.372;2023-11-21T03:05:06;5.40;99.90
8099;DHT22;4092;47.876;9.372;2023-11-21T03:07:34;5.40;99.90
8099;DHT22;4092;47.876;9.372;2023-11-21T03:10:01;5.40;99.90
8099;DHT22;4092;47.876;9.372;2023-11-21T03:12:30;5.40;99.90
8099;DHT22;4092;47.876;9.372;2023-11-21T03:15:01;5.40;99.90
8099;DHT22;4092;47.876;9.372;2023-11-21T03:17:31;5.30;99.90
8099;DHT22;4092;47.876;9.372;2023-11-21T03:20:00;5.30;99.90
8099;DHT22;4092;47.876;9.372;2023-11-21T03:22:28;5.30;99.90
8099;DHT22;4092;47.876;9.372;2023-11-21T03:24:56;5.20;99.90
8099;DHT22;4092;47.876;9.372;2023-11-21T03:27:24;5.20;99.90
8099;DHT22;4092;47.876;9.372;2023-11-21T03:29:50;5.20;99.90
8099;DHT22;4092;47.876;9.372;2023-11-21T03:32:19;5.10;99.90
8099;DHT22;4092;47.876;9.372;2023-11-21T03:34:56;5.10;99.90
8099;DHT22;4092;47.876;9.372;2023-11-21T03:37:23;5.10;99.90
8099;DHT22;4092;47.876;9.372;2023-11-21T03:39:53;5.10;99.90
8099;DHT22;4092;47.876;9.372;2023-11-21T03:42:23;5.10;99.90
8099;DHT22;4092;47.876;9.372;2023-11-21T03:44:51;5.10;99.90
8099;DHT22;4092;47.876;9.372;2023-11-21T03:47:20;5.10;99.90
8099;DHT22;4092;47.876;9.372;2023-11-21T03:49:47;5.10;99.90
8099;DHT22;4092;47.876;9.372;2023-11-21T03:52:14;5.10;99.90
8099;DHT22;4092;47.876;9.372;2023-11-21T03:54:41;5.00;99.90
8099;DHT22;4092;47.876;9.372;2023-11-21T03:57:08;5.00;99.90
8099;DHT22;4092;47.876;9.372;2023-11-21T03:59:36;5.00;99.90
8099;DHT22;4092;47.876;9.372;2023-11-21T04:02:06;5.00;99.90
8099;DHT22;4092;47.876;9.372;2023-11-21T04:04:35;5.10;99.90
8099;DHT22;4092;47.876;9.372;2023-11-21T04:07:02;5.00;99.90
8099;DHT22;4092;47.876;9.372;2023-11-21T04:09:29;5.00;99.90
8099;DHT22;4092;47.876;9.372;2023-11-21T04:11:57;5.10;99.90
8099;DHT22;4092;47.876;9.372;2023-11-21T04:14:24;5.10;99.90
8099;DHT22;4092;47.876;9.372;2023-11-21T04:16:51;5.00;99.90
8099;DHT22;4092;47.876;9.372;2023-11-21T04:19:19;5.00;99.90
8099;DHT22;4092;47.876;9.372;2023-11-21T04:21:47;5.00;99.90
8099;DHT22;4092;47.876;9.372;2023-11-21T04:24:14;5.00;99.90
8099;DHT22;4092;47.876;9.372;2023-11-21T04:26:41;5.00;99.90
8099;DHT22;4092;47.876;9.372;2023-11-21T04:29:08;5.10;99.90
8099;DHT22;4092;47.876;9.372;2023-11-21T04:31:35;5.10;99.90
8099;DHT22;4092;47.876;9.372;2023-11-21T04:34:02;5.10;99.90
8099;DHT22;4092;47.876;9.372;2023-11-21T04:36:30;5.10;99.90
8099;DHT22;4092;47.876;9.372;2023-11-21T04:39:01;5.10;99.90
8099;DHT22;4092;47.876;9.372;2023-11-21T04:41:28;5.00;99.90
8099;DHT22;4092;47.876;9.372;2023-11-21T04:43:57;5.00;99.90
8099;DHT22;4092;47.876;9.372;2023-11-21T04:46:24;5.00;99.90
8099;DHT22;4092;47.876;9.372;2023-11-21T04:48:51;5.00;99.90
8099;DHT22;4092;47.876;9.372;2023-11-21T04:51:18;4.90;99.90
8099;DHT22;4092;47.876;9.372;2023-11-21T04:53:45;4.90;99.90
8099;DHT22;4092;47.876;9.372;2023-11-21T04:56:14;4.90;99.90
8099;DHT22;4092;47.876;9.372;2023-11-21T04:58:41;4.90;99.90
8099;DHT22;4092;47.876;9.372;2023-11-21T05:01:09;4.90;99.90
8099;DHT22;4092;47.876;9.372;2023-11-21T05:03:37;4.90;99.90
8099;DHT22;4092;47.876;9.372;2023-11-21T05:06:05;5.00;99.90
8099;DHT22;4092;47.876;9.372;2023-11-21T05:08:32;5.00;99.90
8099;DHT22;4092;47.876;9.372;2023-11-21T05:10:59;5.10;99.90
8099;DHT22;4092;47.876;9.372;2023-11-21T05:13:27;5.10;99.90
8099;DHT22;4092;47.876;9.372;2023-11-21T05:15:55;5.10;99.90
8099;DHT22;4092;47.876;9.372;2023-11-21T05:18:22;5.10;99.90
8099;DHT22;4092;47.876;9.372;2023-11-21T05:20:52;5.10;99.90
8099;DHT22;4092;47.876;9.372;2023-11-21T05:23:19;5.10;99.90
8099;DHT22;4092;47.876;9.372;2023-11-21T05:25:48;5.00;99.90
8099;DHT22;4092;47.876;9.372;2023-11-21T05:28:15;5.10;99.90
8099;DHT22;4092;47.876;9.372;2023-11-21T05:30:44;5.10;99.90
8099;DHT22;4092;47.876;9.372;2023-11-21T05:33:11;5.10;99.90
8099;DHT22;4092;47.876;9.372;2023-11-21T05:35:38;5.10;99.90
8099;DHT22;4092;47.876;9.372;2023-11-21T05:38:05;5.10;99.90
8099;DHT22;4092;47.876;9.372;2023-11-21T05:40:32;5.10;99.90
8099;DHT22;4092;47.876;9.372;2023-11-21T05:42:59;5.10;99.90
8099;DHT22;4092;47.876;9.372;2023-11-21T05:45:26;5.10;99.90
8099;DHT22;4092;47.876;9.372;2023-11-21T05:47:58;5.10;99.90
8099;DHT22;4092;47.876;9.372;2023-11-21T05:50:25;5.10;99.90
8099;DHT22;4092;47.876;9.372;2023-11-21T05:52:52;5.10;99.90
8099;DHT22;4092;47.876;9.372;2023-11-21T05:55:22;5.10;99.90
8099;DHT22;4092;47.876;9.372;2023-11-21T05:57:51;5.10;99.90
8099;DHT22;4092;47.876;9.372;2023-11-21T06:00:18;5.10;99.90
8099;DHT22;4092;47.876;9.372;2023-11-21T06:02:49;5.10;99.90
8099;DHT22;4092;47.876;9.372;2023-11-21T06:05:21;5.10;99.90
8099;DHT22;4092;47.876;9.372;2023-11-21T06:07:48;5.10;99.90
8099;DHT22;4092;47.876;9.372;2023-11-21T06:10:16;5.10;99.90
8099;DHT22;4092;47.876;9.372;2023-11-21T06:12:46;5.10;99.90
8099;DHT22;4092;47.876;9.372;2023-11-21T06:15:14;5.10;99.90
8099;DHT22;4092;47.876;9.372;2023-11-21T06:17:41;5.10;99.90
8099;DHT22;4092;47.876;9.372;2023-11-21T06:20:11;5.10;99.90
8099;DHT22;4092;47.876;9.372;2023-11-21T06:22:42;5.10;99.90
8099;DHT22;4092;47.876;9.372;2023-11-21T06:25:10;5.20;99.90
8099;DHT22;4092;47.876;9.372;2023-11-21T06:27:40;5.20;99.90
8099;DHT22;4092;47.876;9.372;2023-11-21T06:30:07;5.10;99.90
8099;DHT22;4092;47.876;9.372;2023-11-21T06:32:35;5.10;99.90
8099;DHT22;4092;47.876;9.372;2023-11-21T06:35:03;5.20;99.90
8099;DHT22;4092;47.876;9.372;2023-11-21T06:37:31;5.20;99.90
8099;DHT22;4092;47.876;9.372;2023-11-21T06:40:00;5.20;99.90
8099;DHT22;4092;47.876;9.372;2023-11-21T06:42:29;5.20;99.90
8099;DHT22;4092;47.876;9.372;2023-11-21T06:44:57;5.20;99.90
8099;DHT22;4092;47.876;9.372;2023-11-21T06:47:25;5.20;99.90
8099;DHT22;4092;47.876;9.372;2023-11-21T06:49:54;5.20;99.90
8099;DHT22;4092;47.876;9.372;2023-11-21T06:52:21;5.10;99.90
8099;DHT22;4092;47.876;9.372;2023-11-21T06:54:48;5.10;99.90
8099;DHT22;4092;47.876;9.372;2023-11-21T06:57:19;5.20;99.90
8099;DHT22;4092;47.876;9.372;2023-11-21T06:59:46;5.20;99.90
8099;DHT22;4092;47.876;9.372;2023-11-21T07:02:16;5.20;99.90
8099;DHT22;4092;47.876;9.372;2023-11-21T07:04:44;5.20;99.90
8099;DHT22;4092;47.876;9.372;2023-11-21T07:07:11;5.20;99.90
8099;DHT22;4092;47.876;9.372;2023-11-21T07:09:38;5.20;99.90
8099;DHT22;4092;47.876;9.372;2023-11-21T07:12:06;5.20;99.90
8099;DHT22;4092;47.876;9.372;2023-11-21T07:14:36;5.20;99.90
8099;DHT22;4092;47.876;9.372;2023-11-21T07:17:04;5.20;99.90
8099;DHT22;4092;47.876;9.372;2023-11-21T07:19:32;5.20;99.90
8099;DHT22;4092;47.876;9.372;2023-11-21T07:21:59;5.20;99.90
8099;DHT22;4092;47.876;9.372;2023-11-21T07:24:27;5.20;99.90
8099;DHT22;4092;47.876;9.372;2023-11-21T07:26:54;5.20;99.90
8099;DHT22;4092;47.876;9.372;2023-11-21T07:29:23;5.30;99.90
8099;DHT22;4092;47.876;9.372;2023-11-21T07:31:52;5.20;99.90
8099;DHT22;4092;47.876;9.372;2023-11-21T07:34:20;5.20;99.90
8099;DHT22;4092;47.876;9.372;2023-11-21T07:36:47;5.30;99.90
8099;DHT22;4092;47.876;9.372;2023-11-21T07:39:14;5.30;99.90
8099;DHT22;4092;47.876;9.372;2023-11-21T07:41:42;5.30;99.90
8099;DHT22;4092;47.876;9.372;2023-11-21T07:44:15;5.20;99.90
8099;DHT22;4092;47.876;9.372;2023-11-21T07:46:43;5.30;99.90
8099;DHT22;4092;47.876;9.372;2023-11-21T07:49:11;5.30;99.90
8099;DHT22;4092;47.876;9.372;2023-11-21T07:51:40;5.30;99.90
8099;DHT22;4092;47.876;9.372;2023-11-21T07:54:07;5.30;99.90
8099;DHT22;4092;47.876;9.372;2023-11-21T07:56:34;5.30;99.90
8099;DHT22;4092;47.876;9.372;2023-11-21T07:59:01;5.30;99.90
8099;DHT22;4092;47.876;9.372;2023-11-21T08:01:28;5.30;99.90
8099;DHT22;4092;47.876;9.372;2023-11-21T08:03:55;5.40;99.90
8099;DHT22;4092;47.876;9.372;2023-11-21T08:06:29;5.40;99.90
8099;DHT22;4092;47.876;9.372;2023-11-21T08:08:56;5.40;99.90
8099;DHT22;4092;47.876;9.372;2023-11-21T08:11:23;5.40;99.90
8099;DHT22;4092;47.876;9.372;2023-11-21T08:13:51;5.40;99.90
8099;DHT22;4092;47.876;9.372;2023-11-21T08:16:19;5.60;99.90
8099;DHT22;4092;47.876;9.372;2023-11-21T08:18:46;5.70;99.90
8099;DHT22;4092;47.876;9.372;2023-11-21T08:21:13;5.60;99.90
8099;DHT22;4092;47.876;9.372;2023-11-21T08:23:42;5.70;99.90
8099;DHT22;4092;47.876;9.372;2023-11-21T08:26:09;5.70;99.90
8099;DHT22;4092;47.876;9.372;2023-11-21T08:28:36;5.70;99.90
8099;DHT22;4092;47.876;9.372;2023-11-21T08:31:03;5.60;99.90
8099;DHT22;4092;47.876;9.372;2023-11-21T08:33:31;5.70;99.90
8099;DHT22;4092;47.876;9.372;2023-11-21T08:35:58;5.70;99.90
8099;DHT22;4092;47.876;9.372;2023-11-21T08:38:26;5.80;99.90
8099;DHT22;4092;47.876;9.372;2023-11-21T08:40:57;5.80;99.90
8099;DHT22;4092;47.876;9.372;2023-11-21T08:43:24;5.90;99.90
8099;DHT22;4092;47.876;9.372;2023-11-21T08:45:53;5.90;99.90
8099;DHT22;4092;47.876;9.372;2023-11-21T08:48:20;5.90;99.90
8099;DHT22;4092;47.876;9.372;2023-11-21T08:50:47;5.90;99.90
8099;DHT22;4092;47.876;9.372;2023-11-21T08:53:14;6.00;99.90
8099;DHT22;4092;47.876;9.372;2023-11-21T08:55:42;6.00;99.90
8099;DHT22;4092;47.876;9.372;2023-11-21T08:58:11;6.10;99.90
8099;DHT22;4092;47.876;9.372;2023-11-21T09:00:39;6.20;99.90
8099;DHT22;4092;47.876;9.372;2023-11-21T09:03:06;6.20;99.90
8099;DHT22;4092;47.876;9.372;2023-11-21T09:05:37;6.20;99.90
8099;DHT22;4092;47.876;9.372;2023-11-21T09:08:04;6.10;99.90
8099;DHT22;4092;47.876;9.372;2023-11-21T09:10:31;6.10;99.90
8099;DHT22;4092;47.876;9.372;2023-11-21T09:12:58;6.10;99.90
8099;DHT22;4092;47.876;9.372;2023-11-21T09:15:27;6.20;99.90
8099;DHT22;4092;47.876;9.372;2023-11-21T09:17:54;6.30;99.90
8099;DHT22;4092;47.876;9.372;2023-11-21T09:20:21;6.30;99.90
8099;DHT22;4092;47.876;9.372;2023-11-21T09:22:49;6.30;99.90
8099;DHT22;4092;47.876;9.372;2023-11-21T09:25:16;6.40;99.90
8099;DHT22;4092;47.876;9.372;2023-11-21T09:27:45;6.40;99.90
8099;DHT22;4092;47.876;9.372;2023-11-21T09:30:13;6.40;99.90
8099;DHT22;4092;47.876;9.372;2023-11-21T09:32:41;6.40;99.90
8099;DHT22;4092;47.876;9.372;2023-11-21T09:35:11;6.50;99.90
8099;DHT22;4092;47.876;9.372;2023-11-21T09:37:39;6.50;99.90
8099;DHT22;4092;47.876;9.372;2023-11-21T09:40:10;6.60;99.90
8099;DHT22;4092;47.876;9.372;2023-11-21T09:42:40;6.70;99.90
8099;DHT22;4092;47.876;9.372;2023-11-21T09:45:17;6.90;99.90
8099;DHT22;4092;47.876;9.372;2023-11-21T09:47:47;7.10;99.90
8099;DHT22;4092;47.876;9.372;2023-11-21T09:50:17;7.20;99.90
8099;DHT22;4092;47.876;9.372;2023-11-21T09:52:57;7.20;99.90
8099;DHT22;4092;47.876;9.372;2023-11-21T09:55:27;7.10;99.90
8099;DHT22;4092;47.876;9.372;2023-11-21T09:57:56;7.10;99.90
8099;DHT22;4092;47.876;9.372;2023-11-21T10:00:25;7.10;99.90
8099;DHT22;4092;47.876;9.372;2023-11-21T10:03:00;7.20;99.90
8099;DHT22;4092;47.876;9.372;2023-11-21T10:05:28;7.20;99.90
8099;DHT22;4092;47.876;9.372;2023-11-21T10:08:00;7.40;99.90
8099;DHT22;4092;47.876;9.372;2023-11-21T10:10:28;7.50;99.90
8099;DHT22;4092;47.876;9.372;2023-11-21T10:12:57;7.50;99.90
8099;DHT22;4092;47.876;9.372;2023-11-21T10:15:29;7.60;99.90
8099;DHT22;4092;47.876;9.372;2023-11-21T10:18:02;7.50;99.90
8099;DHT22;4092;47.876;9.372;2023-11-21T10:20:32;7.30;99.90
8099;DHT22;4092;47.876;9.372;2023-11-21T10:23:03;7.20;99.90
8099;DHT22;4092;47.876;9.372;2023-11-21T10:25:33;7.10;99.90
8099;DHT22;4092;47.876;9.372;2023-11-21T10:28:04;7.00;99.90
8099;DHT22;4092;47.876;9.372;2023-11-21T10:30:33;7.00;99.90
8099;DHT22;4092;47.876;9.372;2023-11-21T10:33:04;6.90;99.90
8099;DHT22;4092;47.876;9.372;2023-11-21T10:35:46;6.90;99.90
8099;DHT22;4092;47.876;9.372;2023-11-21T10:38:16;6.90;99.90
8099;DHT22;4092;47.876;9.372;2023-11-21T10:40:45;6.90;99.90
8099;DHT22;4092;47.876;9.372;2023-11-21T10:43:14;6.90;99.90
8099;DHT22;4092;47.876;9.372;2023-11-21T10:45:42;7.00;99.90
8099;DHT22;4092;47.876;9.372;2023-11-21T10:48:12;7.20;99.90
8099;DHT22;4092;47.876;9.372;2023-11-21T10:50:41;7.50;99.90
8099;DHT22;4092;47.876;9.372;2023-11-21T10:53:09;7.80;99.90
8099;DHT22;4092;47.876;9.372;2023-11-21T10:55:37;8.00;99.90
8099;DHT22;4092;47.876;9.372;2023-11-21T10:58:05;8.10;99.90
8099;DHT22;4092;47.876;9.372;2023-11-21T11:00:33;8.30;99.90
8099;DHT22;4092;47.876;9.372;2023-11-21T11:03:01;8.40;99.90
8099;DHT22;4092;47.876;9.372;2023-11-21T11:05:30;8.20;99.90
8099;DHT22;4092;47.876;9.372;2023-11-21T11:07:59;8.00;99.90
8099;DHT22;4092;47.876;9.372;2023-11-21T11:10:27;7.80;99.90
8099;DHT22;4092;47.876;9.372;2023-11-21T11:12:55;7.70;99.90
8099;DHT22;4092;47.876;9.372;2023-11-21T11:15:23;7.50;99.90
8099;DHT22;4092;47.876;9.372;2023-11-21T11:17:51;7.50;99.90
8099;DHT22;4092;47.876;9.372;2023-11-21T11:20:23;7.50;99.90
8099;DHT22;4092;47.876;9.372;2023-11-21T11:23:09;7.60;99.90
8099;DHT22;4092;47.876;9.372;2023-11-21T11:25:52;7.90;99.90
8099;DHT22;4092;47.876;9.372;2023-11-21T11:28:35;8.20;99.90
8099;DHT22;4092;47.876;9.372;2023-11-21T11:31:09;8.40;99.90
8099;DHT22;4092;47.876;9.372;2023-11-21T11:33:41;8.40;99.90
8099;DHT22;4092;47.876;9.372;2023-11-21T11:36:15;8.60;99.90
8099;DHT22;4092;47.876;9.372;2023-11-21T11:38:47;8.80;99.90
8099;DHT22;4092;47.876;9.372;2023-11-21T11:41:25;9.00;99.90
8099;DHT22;4092;47.876;9.372;2023-11-21T11:43:52;9.10;99.90
8099;DHT22;4092;47.876;9.372;2023-11-21T11:46:19;9.20;99.90
8099;DHT22;4092;47.876;9.372;2023-11-21T11:48:48;9.40;99.90
8099;DHT22;4092;47.876;9.372;2023-11-21T11:51:29;9.30;99.90
8099;DHT22;4092;47.876;9.372;2023-11-21T11:53:58;9.10;99.90
8099;DHT22;4092;47.876;9.372;2023-11-21T11:56:27;8.80;99.90
8099;DHT22;4092;47.876;9.372;2023-11-21T11:58:56;8.70;99.90
8099;DHT22;4092;47.876;9.372;2023-11-21T12:01:25;8.80;99.90
8099;DHT22;4092;47.876;9.372;2023-11-21T12:04:24;8.80;99.90
8099;DHT22;4092;47.876;9.372;2023-11-21T12:06:59;8.70;99.90
8099;DHT22;4092;47.876;9.372;2023-11-21T12:09:30;8.80;99.90
8099;DHT22;4092;47.876;9.372;2023-11-21T12:11:58;8.90;99.90
8099;DHT22;4092;47.876;9.372;2023-11-21T12:14:26;9.00;99.90
8099;DHT22;4092;47.876;9.372;2023-11-21T12:16:53;9.00;99.90
8099;DHT22;4092;47.876;9.372;2023-11-21T12:19:20;9.10;99.90
8099;DHT22;4092;47.876;9.372;2023-11-21T12:21:49;9.30;99.90
8099;DHT22;4092;47.876;9.372;2023-11-21T12:24:17;9.50;99.90
8099;DHT22;4092;47.876;9.372;2023-11-21T12:26:47;9.70;99.90
8099;DHT22;4092;47.876;9.372;2023-11-21T12:29:14;9.80;99.90
8099;DHT22;4092;47.876;9.372;2023-11-21T12:31:42;9.80;99.90
8099;DHT22;4092;47.876;9.372;2023-11-21T12:34:10;9.90;99.90
8099;DHT22;4092;47.876;9.372;2023-11-21T12:36:37;9.90;99.90
8099;DHT22;4092;47.876;9.372;2023-11-21T12:39:05;9.90;99.90
8099;DHT22;4092;47.876;9.372;2023-11-21T12:41:35;10.00;99.90
8099;DHT22;4092;47.876;9.372;2023-11-21T12:44:03;10.10;99.90
8099;DHT22;4092;47.876;9.372;2023-11-21T12:46:33;9.90;99.90
8099;DHT22;4092;47.876;9.372;2023-11-21T12:49:01;9.80;99.90
8099;DHT22;4092;47.876;9.372;2023-11-21T12:51:28;9.60;99.90
8099;DHT22;4092;47.876;9.372;2023-11-21T12:53:55;9.50;99.90
8099;DHT22;4092;47.876;9.372;2023-11-21T12:56:24;9.30;99.90
8099;DHT22;4092;47.876;9.372;2023-11-21T12:58:54;9.10;99.90
8099;DHT22;4092;47.876;9.372;2023-11-21T13:01:26;9.00;99.90
8099;DHT22;4092;47.876;9.372;2023-11-21T13:03:57;8.80;99.90
8099;DHT22;4092;47.876;9.372;2023-11-21T13:06:25;8.70;99.90
8099;DHT22;4092;47.876;9.372;2023-11-21T13:08:54;8.50;99.90
8099;DHT22;4092;47.876;9.372;2023-11-21T13:11:22;8.40;99.90
8099;DHT22;4092;47.876;9.372;2023-11-21T13:13:52;8.30;99.90
8099;DHT22;4092;47.876;9.372;2023-11-21T13:16:19;8.30;99.90
8099;DHT22;4092;47.876;9.372;2023-11-21T13:18:48;8.20;99.90
8099;DHT22;4092;47.876;9.372;2023-11-21T13:21:15;8.20;99.90
8099;DHT22;4092;47.876;9.372;2023-11-21T13:23:43;8.20;99.90
8099;DHT22;4092;47.876;9.372;2023-11-21T13:26:11;8.20;99.90
8099;DHT22;4092;47.876;9.372;2023-11-21T13:28:40;8.20;99.90
8099;DHT22;4092;47.876;9.372;2023-11-21T13:31:11;8.30;99.90
8099;DHT22;4092;47.876;9.372;2023-11-21T13:33:48;8.20;99.90
8099;DHT22;4092;47.876;9.372;2023-11-21T13:36:21;8.20;99.90
8099;DHT22;4092;47.876;9.372;2023-11-21T13:38:49;8.00;99.90
8099;DHT22;4092;47.876;9.372;2023-11-21T13:41:19;7.80;99.90
8099;DHT22;4092;47.876;9.372;2023-11-21T13:43:48;7.60;99.90
8099;DHT22;4092;47.876;9.372;2023-11-21T13:46:23;7.40;99.90
8099;DHT22;4092;47.876;9.372;2023-11-21T13:48:52;7.30;99.90
8099;DHT22;4092;47.876;9.372;2023-11-21T13:51:21;7.30;99.90
8099;DHT22;4092;47.876;9.372;2023-11-21T13:53:56;7.30;99.90
8099;DHT22;4092;47.876;9.372;2023-11-21T13:56:24;7.30;99.90
8099;DHT22;4092;47.876;9.372;2023-11-21T13:58:54;7.40;99.90
8099;DHT22;4092;47.876;9.372;2023-11-21T14:01:23;7.40;99.90
8099;DHT22;4092;47.876;9.372;2023-11-21T14:04:12;7.50;99.90
8099;DHT22;4092;47.876;9.372;2023-11-21T14:06:46;7.60;99.90
8099;DHT22;4092;47.876;9.372;2023-11-21T14:09:14;7.60;99.90
8099;DHT22;4092;47.876;9.372;2023-11-21T14:11:49;7.70;99.90
8099;DHT22;4092;47.876;9.372;2023-11-21T14:14:17;7.80;99.90
8099;DHT22;4092;47.876;9.372;2023-11-21T14:16:44;7.90;99.90
8099;DHT22;4092;47.876;9.372;2023-11-21T14:19:12;8.00;99.90
8099;DHT22;4092;47.876;9.372;2023-11-21T14:21:42;8.00;99.90
8099;DHT22;4092;47.876;9.372;2023-11-21T14:24:10;8.00;99.90
8099;DHT22;4092;47.876;9.372;2023-11-21T14:26:41;7.90;99.90
8099;DHT22;4092;47.876;9.372;2023-11-21T14:29:09;7.80;99.90
8099;DHT22;4092;47.876;9.372;2023-11-21T14:31:39;7.70;99.90
8099;DHT22;4092;47.876;9.372;2023-11-21T14:34:07;7.60;99.90
8099;DHT22;4092;47.876;9.372;2023-11-21T14:36:35;7.60;99.90
8099;DHT22;4092;47.876;9.372;2023-11-21T14:39:04;7.50;99.90
8099;DHT22;4092;47.876;9.372;2023-11-21T14:41:34;7.40;99.90
8099;DHT22;4092;47.876;9.372;2023-11-21T14:44:04;7.40;99.90
8099;DHT22;4092;47.876;9.372;2023-11-21T14:46:33;7.40;99.90
8099;DHT22;4092;47.876;9.372;2023-11-21T14:49:02;7.40;99.90
8099;DHT22;4092;47.876;9.372;2023-11-21T14:51:46;7.40;99.90
8099;DHT22;4092;47.876;9.372;2023-11-21T14:54:27;7.50;99.90
8099;DHT22;4092;47.876;9.372;2023-11-21T14:57:06;7.50;99.90
8099;DHT22;4092;47.876;9.372;2023-11-21T14:59:36;7.50;99.90
8099;DHT22;4092;47.876;9.372;2023-11-21T15:02:03;7.50;99.90
8099;DHT22;4092;47.876;9.372;2023-11-21T15:04:41;7.50;99.90
8099;DHT22;4092;47.876;9.372;2023-11-21T15:07:10;7.50;99.90
8099;DHT22;4092;47.876;9.372;2023-11-21T15:09:38;7.40;99.90
8099;DHT22;4092;47.876;9.372;2023-11-21T15:12:09;7.40;99.90
8099;DHT22;4092;47.876;9.372;2023-11-21T15:14:42;7.30;99.90
8099;DHT22;4092;47.876;9.372;2023-11-21T15:17:11;7.30;99.90
8099;DHT22;4092;47.876;9.372;2023-11-21T15:19:41;7.30;99.90
8099;DHT22;4092;47.876;9.372;2023-11-21T15:22:11;7.20;99.90
8099;DHT22;4092;47.876;9.372;2023-11-21T15:24:40;7.30;99.90
8099;DHT22;4092;47.876;9.372;2023-11-21T15:27:10;7.30;99.90
8099;DHT22;4092;47.876;9.372;2023-11-21T15:29:38;7.30;99.90
8099;DHT22;4092;47.876;9.372;2023-11-21T15:32:05;7.30;99.90
8099;DHT22;4092;47.876;9.372;2023-11-21T15:34:33;7.20;99.90
8099;DHT22;4092;47.876;9.372;2023-11-21T15:37:00;7.20;99.90
8099;DHT22;4092;47.876;9.372;2023-11-21T15:39:29;7.20;99.90
8099;DHT22;4092;47.876;9.372;2023-11-21T15:41:57;7.20;99.90
8099;DHT22;4092;47.876;9.372;2023-11-21T15:44:24;7.20;99.90
8099;DHT22;4092;47.876;9.372;2023-11-21T15:46:52;7.20;99.90
8099;DHT22;4092;47.876;9.372;2023-11-21T15:49:19;7.10;99.90
8099;DHT22;4092;47.876;9.372;2023-11-21T15:51:48;7.00;99.90
8099;DHT22;4092;47.876;9.372;2023-11-21T15:54:19;7.00;99.90
8099;DHT22;4092;47.876;9.372;2023-11-21T15:56:48;7.00;99.90
8099;DHT22;4092;47.876;9.372;2023-11-21T15:59:15;7.00;99.90
8099;DHT22;4092;47.876;9.372;2023-11-21T16:01:43;7.00;99.90
8099;DHT22;4092;47.876;9.372;2023-11-21T16:04:14;7.00;99.90
8099;DHT22;4092;47.876;9.372;2023-11-21T16:06:42;7.00;99.90
8099;DHT22;4092;47.876;9.372;2023-11-21T16:09:11;7.00;99.90
8099;DHT22;4092;47.876;9.372;2023-11-21T16:11:49;7.00;99.90
8099;DHT22;4092;47.876;9.372;2023-11-21T16:14:23;7.00;99.90
8099;DHT22;4092;47.876;9.372;2023-11-21T16:16:52;7.00;99.90
8099;DHT22;4092;47.876;9.372;2023-11-21T16:19:20;7.00;99.90
8099;DHT22;4092;47.876;9.372;2023-11-21T16:21:47;7.00;99.90
8099;DHT22;4092;47.876;9.372;2023-11-21T16:24:14;7.00;99.90
8099;DHT22;4092;47.876;9.372;2023-11-21T16:26:42;6.90;99.90